DAAG/ALG METAR and TAF weather

Enter ICAO airport designator
Station Type Date Time Source
DAAG METAR 2018/10/19 15:00 UTC NOAA

DAAG 191500Z 06009KT 9999 FEW026 23/18 Q1013


Station Type Date Time Source
DAAG Decoded METAR 2018/10/19 15:00 UTC NOAA

Dar-El-Beida, Algeria (DAAG) 36-43N 003-15E 25M
Oct 19, 2018 - 11:00 AM EDT / 2018.10.19 1500 UTC
Wind: from the ENE (060 degrees) at 10 MPH (9 KT):0
Visibility: greater than 7 mile(s):0
Sky conditions: mostly clear
Temperature: 73 F (23 C)
Dew Point: 64 F (18 C)
Relative Humidity: 73%
Pressure (altimeter): 29.91 in. Hg (1013 hPa)
ob: DAAG 191500Z 06009KT 9999 FEW026 23/18 Q1013
cycle: 15

Station Type Date Time Source
DAAG TAF 2018/10/19 12:33 UTC NOAA

TAF TAF DAAG 191100Z 1912/2012 03010KT 9999 SCT023
TEMPO 1912/1917 FEW020TCU
BECMG 1918/1921 VRB02KT PROB30
TEMPO 1918/1922 5000 -DZ BKN015
BECMG 2008/2011 31010KT


Example: see airport list